Time;durP1;ratioP1;P1;durP2;ratioP2;P2;SDS_P1;SDS_P2;PMS_P1;PMS_P2;Temp;Humidity;BMP_temperature;BMP_pressure;BME280_temperature;BME280_humidity;BME280_pressure;Samples;Min_cycle;Max_cycle;Signal;HPM_P1;HPM_P2
2021/07/29 00:01:14;;;;;;;7.80;6.90;;;;;;;;;;5037542;28;20501;-78
2021/07/29 00:03:41;;;;;;;7.73;7.03;;;;;;;;;;5037417;28;20470;-78
2021/07/29 00:06:09;;;;;;;7.17;6.57;;;;;;;;;;5036845;28;20857;-78
2021/07/29 00:08:36;;;;;;;6.03;5.50;;;;;;;;;;5037447;28;20443;-78
2021/07/29 00:11:04;;;;;;;6.47;5.73;;;;;;;;;;5037136;28;20953;-79
2021/07/29 00:13:31;;;;;;;6.13;5.53;;;;;;;;;;5036909;28;20454;-78
2021/07/29 00:16:02;;;;;;;7.30;6.63;;;;;;;;;;5037220;28;20457;-78
2021/07/29 00:21:14;;;;;;;6.23;5.63;;;;;;;;;;5036857;28;20505;-78
2021/07/29 00:23:41;;;;;;;6.33;5.63;;;;;;;;;;5036636;28;20451;-78
2021/07/29 00:26:09;;;;;;;5.80;5.30;;;20.30;99.90;;;;;;5037086;28;20474;-78
2021/07/29 00:28:36;;;;;;;6.77;6.07;;;;;;;;;;5036787;28;20447;-78
2021/07/29 00:31:04;;;;;;;6.57;5.88;;;20.20;99.90;;;;;;5036545;28;20485;-78
2021/07/29 00:33:30;;;;;;;6.50;5.60;;;20.20;99.90;;;;;;5045200;28;20204;-77
2021/07/29 00:35:57;;;;;;;7.70;6.47;;;20.30;99.90;;;;;;5045848;28;20500;-77
2021/07/29 00:38:24;;;;;;;7.37;6.77;;;20.30;99.90;;;;;;5044269;28;20505;-77
2021/07/29 00:40:50;;;;;;;8.30;6.20;;;20.20;99.90;;;;;;5037592;28;20486;-78
2021/07/29 00:43:17;;;;;;;7.20;6.27;;;20.30;99.90;;;;;;5037083;28;20490;-78
2021/07/29 00:45:45;;;;;;;6.47;5.83;;;20.30;99.90;;;;;;5037871;28;20458;-77
2021/07/29 00:48:14;;;;;;;8.37;5.67;;;20.20;99.90;;;;;;5038935;28;20447;-78
2021/07/29 00:50:40;;;;;;;6.93;6.00;;;20.20;99.90;;;;;;5038153;28;20493;-78
2021/07/29 00:53:09;;;;;;;9.23;5.60;;;20.20;99.90;;;;;;5045353;28;20446;-77
2021/07/29 00:55:36;;;;;;;5.63;5.10;;;20.10;99.90;;;;;;5043600;28;20447;-78
2021/07/29 00:58:03;;;;;;;6.23;5.67;;;20.10;99.90;;;;;;5036639;28;20491;-78
2021/07/29 01:00:29;;;;;;;8.00;5.83;;;20.10;99.90;;;;;;5036591;28;20509;-78
2021/07/29 01:02:56;;;;;;;7.27;5.93;;;20.10;99.90;;;;;;5035948;28;20965;-78
2021/07/29 01:05:24;;;;;;;5.90;5.40;;;;;;;;;;5036742;28;20479;-78
2021/07/29 01:07:52;;;;;;;9.40;5.90;;;;;;;;;;5037330;28;20447;-78
2021/07/29 01:10:19;;;;;;;5.93;5.13;;;;;;;;;;5038589;28;20518;-78
2021/07/29 01:12:47;;;;;;;8.07;5.97;;;;;;;;;;5036111;28;20453;-78
2021/07/29 01:15:15;;;;;;;6.83;5.57;;;;;;;;;;5035726;28;20526;-78
2021/07/29 01:17:43;;;;;;;5.50;5.00;;;;;;;;;;5035729;28;20493;-78
2021/07/29 01:20:10;;;;;;;9.23;5.40;;;;;;;;;;5035395;28;20884;-78
2021/07/29 01:22:39;;;;;;;9.47;5.47;;;;;;;;;;5035541;28;20506;-78
2021/07/29 01:25:06;;;;;;;7.13;5.87;;;;;;;;;;5036047;28;20478;-78
2021/07/29 01:27:34;;;;;;;8.73;4.63;;;;;;;;;;5035631;28;20817;-78
2021/07/29 01:30:03;;;;;;;5.53;5.03;;;;;;;;;;5035691;28;20510;-78
2021/07/29 01:32:31;;;;;;;5.77;5.17;;;;;;;;;;5035695;28;20514;-78
2021/07/29 01:34:59;;;;;;;5.63;5.13;;;;;;;;;;5035410;28;20481;-78
2021/07/29 01:37:27;;;;;;;6.57;5.97;;;;;;;;;;5035805;28;20454;-78
2021/07/29 01:39:56;;;;;;;5.20;4.50;;;;;;;;;;5035607;28;20232;-78
2021/07/29 01:42:23;;;;;;;5.63;5.13;;;;;;;;;;5035290;28;21001;-78
2021/07/29 01:44:50;;;;;;;5.63;5.13;;;;;;;;;;5035848;28;20470;-78
2021/07/29 01:47:18;;;;;;;8.43;5.67;;;;;;;;;;5043090;28;20461;-77
2021/07/29 01:49:45;;;;;;;6.53;5.57;;;;;;;;;;5046602;28;20447;-77
2021/07/29 01:52:13;;;;;;;6.03;5.53;;;;;;;;;;5045832;28;20491;-77
2021/07/29 01:54:40;;;;;;;5.20;4.70;;;;;;;;;;5044997;28;20441;-77
2021/07/29 01:57:09;;;;;;;5.23;4.70;;;;;;;;;;5038973;28;20875;-78
2021/07/29 01:59:37;;;;;;;5.87;5.37;;;;;;;;;;5035200;28;20529;-78
2021/07/29 02:02:05;;;;;;;5.70;5.20;;;;;;;;;;5034743;28;20455;-78
2021/07/29 02:04:33;;;;;;;5.70;5.23;;;;;;;;;;5034631;28;20497;-78
2021/07/29 02:07:01;;;;;;;5.50;5.00;;;;;;;;;;5034218;28;20451;-78
2021/07/29 02:09:29;;;;;;;6.07;5.47;;;;;;;;;;5034753;28;20806;-78
2021/07/29 02:11:56;;;;;;;6.43;5.93;;;;;;;;;;5034150;28;20537;-78
2021/07/29 02:14:28;;;;;;;9.27;5.53;;;;;;;;;;5034393;28;20451;-78
2021/07/29 02:16:55;;;;;;;6.10;5.60;;;;;;;;;;5034256;28;20439;-78
2021/07/29 02:19:22;;;;;;;6.00;5.07;;;;;;;;;;5034578;28;20446;-78
2021/07/29 02:21:49;;;;;;;9.70;5.47;;;;;;;;;;5034451;28;20897;-78
2021/07/29 02:24:16;;;;;;;5.90;5.30;;;;;;;;;;5038041;28;20520;-77
2021/07/29 02:26:43;;;;;;;5.20;4.70;;;;;;;;;;5038718;28;20973;-77
2021/07/29 02:29:10;;;;;;;5.30;4.63;;;;;;;;;;5039666;28;20454;-77
2021/07/29 02:31:38;;;;;;;6.00;5.33;;;;;;;;;;5037008;28;20534;-78
2021/07/29 02:34:05;;;;;;;6.00;5.40;;;;;;;;;;5035039;28;20478;-78
2021/07/29 02:36:32;;;;;;;5.00;4.57;;;;;;;;;;5044112;28;20474;-77
2021/07/29 02:38:59;;;;;;;5.00;4.60;;;;;;;;;;5038189;28;20479;-78
2021/07/29 02:41:26;;;;;;;5.40;4.90;;;;;;;;;;5034920;28;20857;-78
2021/07/29 02:43:53;;;;;;;5.77;5.07;;;;;;;;;;5034547;28;20498;-78
2021/07/29 02:46:20;;;;;;;5.47;4.97;;;;;;;;;;5035945;28;20483;-77
2021/07/29 02:48:48;;;;;;;5.53;5.00;;;;;;;;;;5038450;28;20443;-76
2021/07/29 02:51:15;;;;;;;6.47;5.87;;;;;;;;;;5038792;28;20479;-76
2021/07/29 02:53:42;;;;;;;5.67;5.17;;;;;;;;;;5045374;28;20451;-78
2021/07/29 02:56:09;;;;;;;4.67;4.37;;;;;;;;;;5046492;28;20961;-78
2021/07/29 02:58:37;;;;;;;5.40;5.00;;;;;;;;;;5046491;28;20477;-78
2021/07/29 03:01:04;;;;;;;5.73;5.20;;;;;;;;;;5047896;28;20463;-78
2021/07/29 03:03:31;;;;;;;6.10;5.50;;;;;;;;;;5043662;28;20443;-79
2021/07/29 03:05:59;;;;;;;5.20;4.77;;;;;;;;;;5043508;28;20541;-78
2021/07/29 03:08:26;;;;;;;5.93;5.13;;;;;;;;;;5045609;28;20447;-78
2021/07/29 03:10:57;;;;;;;7.53;5.77;;;;;;;;;;5043991;28;20487;-78
2021/07/29 03:13:24;;;;;;;5.70;5.20;;;;;;;;;;5044351;28;20457;-78
2021/07/29 03:15:51;;;;;;;7.00;5.93;;;;;;;;;;5044945;28;20450;-78
2021/07/29 03:18:18;;;;;;;6.20;5.70;;;;;;;;;;5041616;28;20493;-80
2021/07/29 03:20:45;;;;;;;6.93;5.63;;;;;;;;;;5038686;28;20471;-79
2021/07/29 03:23:13;;;;;;;6.50;5.37;;;;;;;;;;5039524;28;20479;-80
2021/07/29 03:25:40;;;;;;;7.73;5.13;;;;;;;;;;5038932;28;20504;-80
2021/07/29 03:28:07;;;;;;;6.33;5.73;;;;;;;;;;5039825;28;20474;-79
2021/07/29 03:30:34;;;;;;;5.20;4.80;;;;;;;;;;5038735;28;20542;-80
2021/07/29 03:33:02;;;;;;;7.20;4.70;;;;;;;;;;5038549;28;20482;-79
2021/07/29 03:35:29;;;;;;;8.07;5.90;;;;;;;;;;5038751;28;20446;-79
2021/07/29 03:37:56;;;;;;;5.80;5.30;;;;;;;;;;5038283;28;20208;-79
2021/07/29 03:40:24;;;;;;;6.13;4.70;;;;;;;;;;5038452;28;20446;-79
2021/07/29 03:42:51;;;;;;;6.03;5.40;;;;;;;;;;5039228;28;20817;-80
2021/07/29 03:45:18;;;;;;;5.10;4.70;;;;;;;;;;5038288;28;20478;-79
2021/07/29 03:47:45;;;;;;;5.87;5.23;;;;;;;;;;5038874;28;20451;-80
2021/07/29 03:50:12;;;;;;;4.93;4.43;;;;;;;;;;5038243;28;20478;-79
2021/07/29 03:52:39;;;;;;;5.70;5.10;;;;;;;;;;5041299;28;20729;-79
2021/07/29 03:55:07;;;;;;;6.80;5.53;;;;;;;;;;5042170;28;20504;-79
2021/07/29 03:57:35;;;;;;;7.77;6.10;;;;;;;;;;5041587;28;20546;-80
2021/07/29 04:00:03;;;;;;;4.90;4.40;;;;;;;;;;5039419;28;20964;-79
2021/07/29 04:02:30;;;;;;;5.97;4.60;;;;;;;;;;5042899;28;20494;-79
2021/07/29 04:04:57;;;;;;;6.50;5.30;;;;;;;;;;5037908;28;20451;-80
2021/07/29 04:07:24;;;;;;;6.40;5.17;;;;;;;;;;5038314;28;20470;-80
2021/07/29 04:09:52;;;;;;;5.47;4.97;;;;;;;;;;5038484;28;20486;-80
2021/07/29 04:12:19;;;;;;;5.50;4.40;;;;;;;;;;5037246;28;21019;-79
2021/07/29 04:14:47;;;;;;;5.60;5.10;;;;;;;;;;5041267;28;20478;-80
2021/07/29 04:17:15;;;;;;;5.13;4.63;;;;;;;;;;5042639;28;20817;-80
2021/07/29 04:19:42;;;;;;;4.67;4.27;;;;;;;;;;5038293;28;20447;-80
2021/07/29 04:22:09;;;;;;;7.03;5.17;;;;;;;;;;5038266;28;20494;-80
2021/07/29 04:24:37;;;;;;;5.07;4.57;;;;;;;;;;5038473;28;20451;-79
2021/07/29 04:27:04;;;;;;;5.03;4.53;;;;;;;;;;5038828;28;20455;-79
2021/07/29 04:29:32;;;;;;;4.90;4.50;;;;;;;;;;5042730;28;20458;-79
2021/07/29 04:32:00;;;;;;;4.77;4.07;;;;;;;;;;5052513;28;20475;-80
2021/07/29 04:34:28;;;;;;;6.87;5.30;;;;;;;;;;5039154;28;20483;-79
2021/07/29 04:36:55;;;;;;;4.67;4.03;;;;;;;;;;5038545;28;20451;-80
2021/07/29 04:39:22;;;;;;;4.43;4.03;;;;;;;;;;5039935;28;20463;-79
2021/07/29 04:41:49;;;;;;;6.87;4.90;;;;;;;;;;5044924;28;20471;-79
2021/07/29 04:44:16;;;;;;;10.53;5.00;;;;;;;;;;5045212;28;20454;-79
2021/07/29 04:46:44;;;;;;;7.50;4.70;;;;;;;;;;5043505;28;20455;-80
2021/07/29 04:49:13;;;;;;;5.50;5.00;;;;;;;;;;5038565;28;20513;-80
2021/07/29 04:51:40;;;;;;;5.17;4.40;;;;;;;;;;5038757;28;21043;-80
2021/07/29 04:54:07;;;;;;;9.17;7.80;;;;;;;;;;5037582;28;20479;-79
2021/07/29 04:56:34;;;;;;;6.33;5.50;;;;;;;;;;5037619;28;20486;-80
2021/07/29 04:59:01;;;;;;;10.07;6.70;;;;;;;;;;5037460;28;20478;-80
2021/07/29 05:01:28;;;;;;;7.67;4.63;;;;;;;;;;5038354;28;20837;-80
2021/07/29 05:03:55;;;;;;;4.87;4.47;;;;;;;;;;5039433;28;20455;-79
2021/07/29 05:06:23;;;;;;;4.60;4.17;;;;;;;;;;5036408;28;20467;-79
2021/07/29 05:08:50;;;;;;;5.13;4.63;;;;;;;;;;5036902;28;20443;-79
2021/07/29 05:11:17;;;;;;;5.20;4.57;;;;;;;;;;5036930;28;20911;-80
2021/07/29 05:13:44;;;;;;;6.67;4.30;;;;;;;;;;5036815;28;20802;-79
2021/07/29 05:16:11;;;;;;;4.53;4.03;;;;;;;;;;5037288;28;20478;-79
2021/07/29 05:18:39;;;;;;;5.50;4.30;;;;;;;;;;5038008;28;20451;-79
2021/07/29 05:21:07;;;;;;;5.17;4.77;;;;;;;;;;5037332;28;20475;-80
2021/07/29 05:23:36;;;;;;;4.30;4.00;;;;;;;;;;5039835;28;20443;-79
2021/07/29 05:26:03;;;;;;;6.30;4.27;;;;;;;;;;5041315;28;20455;-79
2021/07/29 05:28:31;;;;;;;4.23;3.80;;;;;;;;;;5041413;28;20447;-79
2021/07/29 05:30:58;;;;;;;6.23;4.43;;;;;;;;;;5039419;28;20467;-79
2021/07/29 05:33:25;;;;;;;4.50;4.10;;;;;;;;;;5037423;28;20483;-80
2021/07/29 05:35:52;;;;;;;4.82;4.43;;;;;;;;;;5037377;28;20520;-80
2021/07/29 05:38:19;;;;;;;7.63;4.47;;;;;;;;;;5039991;28;20200;-80
2021/07/29 05:40:47;;;;;;;3.63;3.33;;;;;;;;;;5059953;22;20490;-80
2021/07/29 05:43:14;;;;;;;4.60;3.60;;;;;;;;;;5042185;28;20478;-80
2021/07/29 05:45:41;;;;;;;5.33;3.57;;;;;;;;;;5041152;28;20208;-79
2021/07/29 05:48:08;;;;;;;4.50;4.10;;;;;;;;;;5039031;28;20435;-81
2021/07/29 05:50:35;;;;;;;5.20;4.70;;;;;;;;;;5042088;28;20513;-80
2021/07/29 05:53:02;;;;;;;5.90;3.90;;;;;;;;;;5041684;28;20510;-81
2021/07/29 05:55:29;;;;;;;4.97;4.47;;;;;;;;;;5042121;28;20550;-80
2021/07/29 05:58:00;;;;;;;4.60;4.20;;;;;;;;;;5041703;28;20446;-81
2021/07/29 06:00:27;;;;;;;6.30;4.60;;;;;;;;;;5042528;28;20495;-80
2021/07/29 06:02:57;;;;;;;6.70;3.90;;;;;;;;;;5041752;28;20463;-80
2021/07/29 06:05:24;;;;;;;4.17;3.73;;;;;;;;;;5040519;28;20457;-81
2021/07/29 06:07:51;;;;;;;4.10;3.80;;;;;;;;;;5042361;28;20455;-82
2021/07/29 06:10:18;;;;;;;4.30;3.90;;;;;;;;;;5044904;28;20439;-79
2021/07/29 06:12:45;;;;;;;5.60;5.10;;;;;;;;;;5050707;28;20545;-78
2021/07/29 06:15:13;;;;;;;5.43;4.37;;;;;;;;;;5049629;28;20454;-82
2021/07/29 06:17:43;;;;;;;4.80;4.40;;;;;;;;;;5046623;28;20509;-80
2021/07/29 06:20:11;;;;;;;5.77;4.13;;;;;;;;;;5045619;28;20534;-79
2021/07/29 06:22:38;;;;;;;5.10;4.57;;;;;;;;;;5043845;28;20497;-81
2021/07/29 06:25:07;;;;;;;4.00;3.70;;;;;;;;;;5043659;28;20596;-80
2021/07/29 06:27:36;;;;;;;5.50;4.83;;;;;;;;;;5043968;28;20485;-82
2021/07/29 06:30:03;;;;;;;4.57;4.00;;;;;;;;;;5043559;28;20489;-81
2021/07/29 06:32:31;;;;;;;4.80;3.63;;;;;;;;;;5043915;28;20510;-78
2021/07/29 06:34:58;;;;;;;5.30;4.20;;;;;;;;;;5043991;28;20479;-79
2021/07/29 06:37:25;;;;;;;4.30;3.90;;;;;;;;;;5043380;28;20481;-81
2021/07/29 06:39:52;;;;;;;9.83;3.97;;;;;;;;;;5042016;28;20446;-80
2021/07/29 06:42:19;;;;;;;4.93;3.80;;;;;;;;;;5040914;28;20493;-80
2021/07/29 06:44:47;;;;;;;4.10;3.70;;;;;;;;;;5048403;28;20443;-79
2021/07/29 06:47:14;;;;;;;4.23;3.93;;;;;;;;;;5043557;28;20454;-81
2021/07/29 06:49:43;;;;;;;4.80;4.33;;;;;;;;;;5040779;28;20451;-80
2021/07/29 06:52:12;;;;;;;7.30;4.13;;;;;;;;;;5041573;28;20486;-80
2021/07/29 06:54:39;;;;;;;4.70;3.63;;;;;;;;;;5040776;28;20443;-80
2021/07/29 06:57:06;;;;;;;6.07;3.80;;;;;;;;;;5040988;28;20451;-81
2021/07/29 06:59:33;;;;;;;4.68;3.25;;;;;;;;;;5040175;28;20845;-80
2021/07/29 07:02:00;;;;;;;7.53;4.57;;;;;;;;;;5041192;28;20224;-80
2021/07/29 07:04:27;;;;;;;5.23;3.70;;;;;;;;;;5039984;28;20474;-80
2021/07/29 07:06:56;;;;;;;8.97;3.80;;;;;;;;;;5040515;28;20451;-80
2021/07/29 07:09:23;;;;;;;3.77;3.47;;;;;;;;;;5040544;28;20813;-80
2021/07/29 07:11:50;;;;;;;4.33;3.90;;;;;;;;;;5040855;28;21001;-81
2021/07/29 07:14:17;;;;;;;6.07;5.37;;;;;;;;;;5039686;28;20912;-81
2021/07/29 07:16:43;;;;;;;6.97;4.63;;;;;;;;;;5039015;28;20472;-80
2021/07/29 07:19:10;;;;;;;4.77;3.50;;;;;;;;;;5038920;28;20953;-81
2021/07/29 07:21:38;;;;;;;4.13;3.67;;;;;;;;;;5045982;28;20485;-79
2021/07/29 07:24:07;;;;;;;4.07;3.70;;;;;;;;;;5044897;28;20447;-81
2021/07/29 07:26:34;;;;;;;5.03;3.20;;;;;;;;;;5039905;28;20446;-81
2021/07/29 07:29:01;;;;;;;5.53;4.97;;;;;;;;;;5040547;28;20466;-80
2021/07/29 07:31:28;;;;;;;6.37;4.63;;;;;;;;;;5044774;28;20497;-80
2021/07/29 07:33:57;;;;;;;3.97;3.33;;;;;;;;;;5046686;28;20854;-79
2021/07/29 07:36:24;;;;;;;4.28;3.15;;;;;;;;;;5044553;28;20481;-79
2021/07/29 07:38:53;;;;;;;4.00;3.70;;;;;;;;;;5045381;28;20575;-79
2021/07/29 07:41:21;;;;;;;3.70;3.50;;;;;;;;;;5045648;28;20482;-79
2021/07/29 07:43:48;;;;;;;3.57;2.80;;;;;;;;;;5052002;28;20446;-79
2021/07/29 07:46:15;;;;;;;3.63;2.77;;;;;;;;;;5054266;28;20451;-81
2021/07/29 07:48:42;;;;;;;5.83;3.57;;;;;;;;;;5052215;28;20454;-79
2021/07/29 07:51:09;;;;;;;4.13;3.80;;;;;;;;;;5057109;28;20482;-81
2021/07/29 07:53:36;;;;;;;10.20;3.67;;;;;;;;;;5050531;28;20482;-79
2021/07/29 07:56:05;;;;;;;6.00;3.37;;;;;;;;;;5055140;28;20446;-80
2021/07/29 07:58:33;;;;;;;10.40;3.83;;;;;;;;;;5057032;28;20439;-80
2021/07/29 08:01:03;;;;;;;5.30;2.83;;;;;;;;;;5054113;28;20825;-81
2021/07/29 08:03:30;;;;;;;4.10;2.90;;;;;;;;;;5047894;28;20980;-81
2021/07/29 08:05:57;;;;;;;5.30;4.90;;;;;;;;;;5044738;28;20458;-81
2021/07/29 08:08:24;;;;;;;6.20;4.00;;;;;;;;;;5043810;28;20443;-80
2021/07/29 08:10:52;;;;;;;4.43;4.03;;;;;;;;;;5042969;28;20446;-79
2021/07/29 08:13:19;;;;;;;5.23;3.63;;;;;;;;;;5046396;28;20478;-80
2021/07/29 08:15:47;;;;;;;4.13;2.73;;;;;;;;;;5044887;28;20455;-80
2021/07/29 08:18:15;;;;;;;5.57;4.23;;;;;;;;;;5043551;28;20501;-80
2021/07/29 08:20:42;;;;;;;8.60;2.73;;;;;;;;;;5043249;28;21023;-81
2021/07/29 08:23:09;;;;;;;2.93;2.53;;;;;;;;;;5044017;28;20794;-81
2021/07/29 08:25:36;;;;;;;3.50;3.00;;;;;;;;;;5044790;28;20505;-81
2021/07/29 08:28:04;;;;;;;4.50;2.90;;;;;;;;;;5044796;28;20447;-80
2021/07/29 08:30:31;;;;;;;4.53;3.40;;;;;;;;;;5045501;28;20432;-81
2021/07/29 08:32:59;;;;;;;2.93;2.67;;;;;;;;;;5044939;28;20490;-82
2021/07/29 08:35:26;;;;;;;3.90;2.80;;;;;;;;;;5044443;28;20447;-81
2021/07/29 08:37:53;;;;;;;4.13;3.10;;;;;;;;;;5050662;28;20497;-79
2021/07/29 08:40:21;;;;;;;3.77;2.37;;;;;;;;;;5053005;28;20473;-80
2021/07/29 08:42:48;;;;;;;4.20;2.53;;;;;;;;;;5056124;28;20474;-80
2021/07/29 08:45:15;;;;;;;4.40;3.70;;;;;;;;;;5057020;28;20447;-80
2021/07/29 08:47:44;;;;;;;7.43;3.70;;;;;;;;;;5054138;28;20451;-80
2021/07/29 08:50:12;;;;;;;4.30;2.90;;;;;;;;;;5050978;28;20468;-79
2021/07/29 08:52:40;;;;;;;6.33;3.17;;;;;;;;;;5054307;28;20510;-80
2021/07/29 08:55:07;;;;;;;3.53;3.20;;;;;;;;;;5052017;28;20443;-81
2021/07/29 08:57:37;;;;;;;5.73;3.57;;;;;;;;;;5050941;28;20439;-81
2021/07/29 09:00:07;;;;;;;4.87;3.73;;;;;;;;;;5048762;28;20451;-80
2021/07/29 09:02:34;;;;;;;4.93;3.40;;;;;;;;;;5048498;28;20463;-79
2021/07/29 09:05:16;;;;;;;5.23;3.80;;;;;;;;;;5047872;28;20447;-79
2021/07/29 09:07:44;;;;;;;4.83;3.87;;;;;;;;;;5053639;28;20484;-80
2021/07/29 09:10:21;;;;;;;4.10;3.70;;;;;;;;;;5048846;28;20436;-80
2021/07/29 09:13:06;;;;;;;6.80;3.63;;;;;;;;;;5045040;28;20482;-82
2021/07/29 09:15:33;;;;;;;3.87;3.57;;;;;;;;;;5045452;28;20444;-81
2021/07/29 09:18:00;;;;;;;4.23;3.67;;;;;;;;;;5043341;28;20447;-81
2021/07/29 09:20:28;;;;;;;4.77;4.30;;;;;;;;;;5045148;28;20478;-80
2021/07/29 09:22:55;;;;;;;5.73;3.73;;;;;;;;;;5044779;28;20466;-81
2021/07/29 09:25:24;;;;;;;4.50;3.23;;;;;;;;;;5052653;28;20473;-77
2021/07/29 09:27:52;;;;;;;6.60;4.03;;;;;;;;;;5053130;28;20501;-78
2021/07/29 09:30:21;;;;;;;3.20;3.00;;;;;;;;;;5052024;28;20454;-79
2021/07/29 09:32:52;;;;;;;6.17;3.70;;;;;;;;;;5056897;28;20471;-80
2021/07/29 09:35:30;;;;;;;6.53;3.20;;;;;;;;;;5048261;28;20934;-81
2021/07/29 09:37:57;;;;;;;3.83;3.30;;;;;;;;;;5046549;28;20427;-81
2021/07/29 09:40:24;;;;;;;5.60;3.50;;;;;;;;;;5055053;28;20455;-81
2021/07/29 09:43:07;;;;;;;3.57;3.27;;;;;;;;;;5057732;28;20471;-81
2021/07/29 09:45:34;;;;;;;5.57;3.90;;;;;;;;;;5055669;28;20442;-80
2021/07/29 09:48:01;;;;;;;4.57;4.07;;;;;;;;;;5053813;28;20444;-80
2021/07/29 09:50:30;;;;;;;7.90;3.40;;;;;;;;;;5056773;28;20443;-82
2021/07/29 09:52:57;;;;;;;7.77;4.27;;;;;;;;;;5052804;28;20517;-79
2021/07/29 09:55:24;;;;;;;5.47;3.17;;;;;;;;;;5049716;28;20485;-80
2021/07/29 09:57:51;;;;;;;4.33;3.97;;;;;;;;;;5054687;28;20450;-81
2021/07/29 10:00:18;;;;;;;5.23;3.20;;;;;;;;;;5055006;28;20447;-82
2021/07/29 10:02:47;;;;;;;4.10;3.20;;;;;;;;;;5046999;28;20459;-81
2021/07/29 10:05:15;;;;;;;4.43;3.60;;;;;;;;;;5045744;28;20438;-82
2021/07/29 10:07:46;;;;;;;3.43;3.10;;;;;;;;;;5045069;28;20511;-82
2021/07/29 10:10:13;;;;;;;5.40;3.83;;;;;;;;;;5046987;28;20427;-82
2021/07/29 10:12:40;;;;;;;7.23;3.70;;;;;;;;;;5045727;28;20537;-82
2021/07/29 10:15:08;;;;;;;3.73;3.43;;;;;;;;;;5046020;28;20442;-81
2021/07/29 10:17:56;;;;;;;6.30;3.90;;;;;;;;;;5053739;28;20447;-80
2021/07/29 10:20:23;;;;;;;3.97;2.63;;;;;;;;;;5054721;28;20496;-82
2021/07/29 10:23:12;;;;;;;7.70;3.30;;;;;;;;;;5044887;28;20489;-81
2021/07/29 10:25:54;;;;;;;5.83;3.80;;;;;;;;;;5042210;28;20462;-81
2021/07/29 10:28:22;;;;;;;5.57;3.57;;;;;;;;;;5042969;28;20439;-81
2021/07/29 10:30:53;;;;;;;6.97;4.20;;;;;;;;;;5044710;28;20443;-82
2021/07/29 10:33:20;;;;;;;4.80;3.67;;;;;;;;;;5043876;28;20467;-81
2021/07/29 10:35:47;;;;;;;3.80;3.40;;;;;;;;;;5043516;28;20450;-82
2021/07/29 10:38:35;;;;;;;5.87;3.43;;;;;;;;;;5044407;28;20497;-82
2021/07/29 10:41:05;;;;;;;5.53;3.47;;;;;;;;;;5045039;28;20471;-81
2021/07/29 10:43:39;;;;;;;3.27;3.00;;;;;;;;;;5045564;28;20455;-81
2021/07/29 10:46:06;;;;;;;4.63;3.57;;;;;;;;;;5046997;28;20510;-81
2021/07/29 10:49:02;;;;;;;4.60;3.23;;;;;;;;;;5049960;28;20463;-79
2021/07/29 10:51:29;;;;;;;3.67;3.30;;;;;;;;;;5056067;28;20467;-81
2021/07/29 10:53:57;;;;;;;4.83;3.90;;;;;;;;;;5057251;28;20881;-81
2021/07/29 10:56:26;;;;;;;3.67;3.23;;;;;;;;;;5055271;28;20443;-82
2021/07/29 10:58:54;;;;;;;3.77;3.40;;;;;;;;;;5047070;28;20557;-80
2021/07/29 11:01:22;;;;;;;4.43;2.50;;;;;;;;;;5044519;28;20466;-80
2021/07/29 11:04:00;;;;;;;3.47;3.17;;;;;;;;;;5044566;28;20454;-81
2021/07/29 11:06:35;;;;;;;2.57;2.37;;;;;;;;;;5045295;28;20435;-82
2021/07/29 11:09:09;;;;;;;6.73;3.30;;;;;;;;;;5044737;28;20441;-81
2021/07/29 11:11:38;;;;;;;5.83;2.70;;;;;;;;;;5044033;28;20470;-83
2021/07/29 11:14:05;;;;;;;6.80;3.97;;;;;;;;;;5044469;28;20479;-82
2021/07/29 11:16:33;;;;;;;5.43;3.30;;;;;;;;;;5044806;28;20451;-82
2021/07/29 11:19:00;;;;;;;3.83;3.40;;;;;;;;;;5044862;28;20501;-82
2021/07/29 11:21:27;;;;;;;3.93;3.63;;;;;;;;;;5047930;28;20526;-81
2021/07/29 11:23:54;;;;;;;8.23;3.27;;;;;;;;;;5050470;28;20443;-79
2021/07/29 11:26:21;;;;;;;9.03;3.83;;;;;;;;;;5050130;28;20470;-82
2021/07/29 11:29:03;;;;;;;3.57;3.00;;;;;;;;;;5050716;28;20446;-82
2021/07/29 11:31:32;;;;;;;5.37;3.97;;;;;;;;;;5055560;28;20466;-80
2021/07/29 11:34:00;;;;;;;5.23;3.20;;;;;;;;;;5056080;28;20987;-80
2021/07/29 11:36:28;;;;;;;3.40;3.10;;;;;;;;;;5054386;28;20447;-83
2021/07/29 11:38:56;;;;;;;10.90;4.07;;;;;;;;;;5052394;28;20451;-80
2021/07/29 11:41:23;;;;;;;7.00;4.20;;;;;;;;;;5073679;22;20617;-78
2021/07/29 11:43:52;;;;;;;5.23;4.10;;;;;;;;;;5040293;28;21008;-81
2021/07/29 11:46:19;;;;;;;4.20;3.23;;;;;;;;;;5041395;28;20443;-80
2021/07/29 11:48:48;;;;;;;3.17;2.87;;;;;;;;;;5042510;28;20821;-81
2021/07/29 11:51:15;;;;;;;3.53;3.23;;;;;;;;;;5041098;28;20463;-80
2021/07/29 11:53:43;;;;;;;4.23;2.80;;;24.10;99.90;;;;;;5039057;28;20996;-80
2021/07/29 11:56:11;;;;;;;2.63;2.10;;;24.20;99.90;;;;;;5038809;28;20516;-80
2021/07/29 11:58:39;;;;;;;7.57;3.20;;;24.10;99.90;;;;;;5039278;28;20457;-81
2021/07/29 12:01:10;;;;;;;3.90;2.60;;;23.90;99.90;;;;;;5038443;28;20490;-80
2021/07/29 12:03:40;;;;;;;4.80;2.80;;;24.00;99.90;;;;;;5041222;28;20439;-79
2021/07/29 12:06:09;;;;;;;2.53;2.33;;;23.90;99.90;;;;;;5038894;28;20534;-79
2021/07/29 12:08:39;;;;;;;3.30;3.00;;;24.00;99.90;;;;;;5039034;28;20831;-81
2021/07/29 12:11:06;;;;;;;4.30;3.10;;;23.90;99.90;;;;;;5038179;28;20455;-79
2021/07/29 12:13:33;;;;;;;4.90;3.00;;;24.10;99.90;;;;;;5038228;28;20903;-79
2021/07/29 12:16:00;;;;;;;2.90;2.70;;;24.30;99.90;;;;;;5038399;28;20534;-80
2021/07/29 12:18:27;;;;;;;4.17;3.13;;;24.40;99.90;;;;;;5038688;28;20649;-80
2021/07/29 12:20:55;;;;;;;3.00;2.60;;;24.40;99.90;;;;;;5038111;28;20540;-80
2021/07/29 12:23:24;;;;;;;3.10;2.80;;;24.50;99.90;;;;;;5039066;28;20462;-79
2021/07/29 12:25:52;;;;;;;3.03;2.40;;;24.50;99.90;;;;;;5039896;28;20501;-80
2021/07/29 12:28:40;;;;;;;3.20;2.40;;;24.40;99.90;;;;;;5041902;28;20563;-79
2021/07/29 12:31:20;;;;;;;2.50;2.00;;;24.50;99.90;;;;;;5040653;28;20437;-79
2021/07/29 12:33:51;;;;;;;3.70;2.60;;;24.40;99.90;;;;;;5042292;28;20482;-79
2021/07/29 12:36:18;;;;;;;2.87;1.70;;;24.30;99.90;;;;;;5040950;28;20478;-79
2021/07/29 12:38:48;;;;;;;2.23;1.97;;;24.30;99.90;;;;;;5043235;28;20486;-79
2021/07/29 12:41:32;;;;;;;4.73;2.00;;;24.20;99.90;;;;;;5043712;28;20459;-79
2021/07/29 12:44:14;;;;;;;2.10;1.73;;;24.10;99.90;;;;;;5043393;28;20415;-79
2021/07/29 12:46:42;;;;;;;3.00;2.43;;;24.00;99.90;;;;;;5044347;28;20945;-79
2021/07/29 12:49:09;;;;;;;14.63;9.67;;;23.80;99.90;;;;;;5042004;28;20526;-80
2021/07/29 12:51:37;;;;;;;2.87;2.40;;;23.70;99.90;;;;;;5039944;28;20487;-80
2021/07/29 12:54:06;;;;;;;2.73;2.53;;;23.70;99.90;;;;;;5037753;28;20482;-79
2021/07/29 12:56:34;;;;;;;3.30;2.70;;;23.60;99.90;;;;;;5038036;28;20504;-78
2021/07/29 12:59:01;;;;;;;2.90;2.70;;;23.60;99.90;;;;;;5040430;28;20447;-79
2021/07/29 13:01:28;;;;;;;5.60;3.27;;;23.70;99.90;;;;;;5041017;28;20467;-80
2021/07/29 13:03:55;;;;;;;6.03;3.10;;;23.90;99.90;;;;;;5041619;28;20746;-80
2021/07/29 13:06:23;;;;;;;5.40;3.60;;;24.00;99.90;;;;;;5039501;28;20443;-80
2021/07/29 13:08:49;;;;;;;3.50;2.40;;;24.00;99.90;;;;;;5038799;28;20860;-80
2021/07/29 13:11:17;;;;;;;4.23;2.07;;;23.90;99.90;;;;;;5038470;28;20463;-80
2021/07/29 13:13:45;;;;;;;3.93;2.87;;;23.80;99.90;;;;;;5038609;28;20822;-80
2021/07/29 13:16:12;;;;;;;2.73;2.33;;;23.70;99.90;;;;;;5037940;28;20451;-80
2021/07/29 13:18:39;;;;;;;2.73;2.53;;;23.70;99.90;;;;;;5038206;28;20474;-80
2021/07/29 13:21:06;;;;;;;2.60;2.00;;;23.50;99.90;;;;;;5037059;28;20868;-80
2021/07/29 13:23:33;;;;;;;3.60;2.60;;;23.60;99.90;;;;;;5037816;28;20447;-80
2021/07/29 13:26:00;;;;;;;3.23;2.07;;;23.60;99.90;;;;;;5038497;28;20478;-79
2021/07/29 13:28:29;;;;;;;2.80;2.60;;;23.70;99.90;;;;;;5037567;28;20827;-80
2021/07/29 13:30:55;;;;;;;2.50;1.83;;;23.90;99.90;;;;;;5037208;28;20485;-79
2021/07/29 13:33:22;;;;;;;3.00;2.70;;;24.10;99.90;;;;;;5041597;28;20438;-79
2021/07/29 13:35:49;;;;;;;2.87;2.33;;;24.20;99.90;;;;;;5044461;28;20494;-78
2021/07/29 13:38:15;;;;;;;4.70;2.80;;;24.30;99.90;;;;;;5041861;28;20475;-79
2021/07/29 13:40:42;;;;;;;7.53;2.50;;;24.20;99.90;;;;;;5039996;28;20459;-81
2021/07/29 13:43:08;;;;;;;6.50;3.03;;;24.10;99.90;;;;;;5037646;28;20536;-80
2021/07/29 13:45:36;;;;;;;4.10;2.20;;;24.00;99.90;;;;;;5040441;28;20447;-80
2021/07/29 13:48:03;;;;;;;4.30;2.70;;;23.90;99.90;;;;;;5038648;28;20509;-80
2021/07/29 13:50:33;;;;;;;2.80;2.60;;;23.90;99.90;;;;;;5039354;28;20497;-79
2021/07/29 13:53:01;;;;;;;5.10;2.83;;;24.00;99.90;;;;;;5041538;28;20471;-79
2021/07/29 13:55:28;;;;;;;4.77;2.47;;;24.20;99.90;;;;;;5042144;28;20492;-79
2021/07/29 13:57:55;;;;;;;3.37;2.40;;;24.40;99.90;;;;;;5048691;28;20808;-79
2021/07/29 14:00:22;;;;;;;3.80;2.47;;;24.50;99.90;;;;;;5046070;28;20490;-79
2021/07/29 14:02:50;;;;;;;2.60;2.37;;;24.50;99.90;;;;;;5038666;28;20466;-80
2021/07/29 14:05:18;;;;;;;3.77;2.73;;;24.60;99.90;;;;;;5038639;28;20450;-79
2021/07/29 14:07:45;;;;;;;3.67;1.63;;;24.60;99.90;;;;;;5037294;28;20516;-78
2021/07/29 14:10:12;;;;;;;7.23;2.37;;;24.30;97.90;;;;;;5037595;28;20485;-79
2021/07/29 14:12:40;;;;;;;4.20;2.53;;;24.20;98.70;;;;;;5039756;28;20953;-79
2021/07/29 14:15:08;;;;;;;3.23;2.60;;;24.10;99.90;;;;;;5038256;28;20483;-79
2021/07/29 14:17:38;;;;;;;5.13;2.50;;;24.10;97.60;;;;;;5036876;28;20519;-80
2021/07/29 14:20:14;;;;;;;3.60;2.03;;;24.10;99.90;;;;;;5037664;28;20452;-79
2021/07/29 14:23:04;;;;;;;5.80;2.40;;;24.10;98.70;;;;;;5037009;28;20485;-80